sensor_id;sensor_type;location;lat;lon;timestamp;P1;durP1;ratioP1;P2;durP2;ratioP2
71106;SDS011;58763;47.982;11.516;2022-10-17T00:01:09;2.95;;;1.30;;
71106;SDS011;58763;47.982;11.516;2022-10-17T00:03:37;2.80;;;1.25;;
71106;SDS011;58763;47.982;11.516;2022-10-17T00:06:04;4.10;;;1.80;;
71106;SDS011;58763;47.982;11.516;2022-10-17T00:08:35;3.17;;;1.48;;
71106;SDS011;58763;47.982;11.516;2022-10-17T00:11:08;5.78;;;1.63;;
71106;SDS011;58763;47.982;11.516;2022-10-17T00:13:44;5.70;;;1.63;;
71106;SDS011;58763;47.982;11.516;2022-10-17T00:16:11;3.28;;;1.40;;
71106;SDS011;58763;47.982;11.516;2022-10-17T00:18:37;4.88;;;1.50;;
71106;SDS011;58763;47.982;11.516;2022-10-17T00:21:03;3.35;;;1.70;;
71106;SDS011;58763;47.982;11.516;2022-10-17T00:23:29;3.47;;;1.60;;
71106;SDS011;58763;47.982;11.516;2022-10-17T00:26:01;3.10;;;1.40;;
71106;SDS011;58763;47.982;11.516;2022-10-17T00:28:29;3.17;;;1.50;;
71106;SDS011;58763;47.982;11.516;2022-10-17T00:30:59;3.28;;;1.40;;
71106;SDS011;58763;47.982;11.516;2022-10-17T00:33:27;3.30;;;1.23;;
71106;SDS011;58763;47.982;11.516;2022-10-17T00:36:07;3.42;;;1.38;;
71106;SDS011;58763;47.982;11.516;2022-10-17T00:38:33;2.20;;;1.10;;
71106;SDS011;58763;47.982;11.516;2022-10-17T00:41:00;3.00;;;1.45;;
71106;SDS011;58763;47.982;11.516;2022-10-17T00:43:26;3.47;;;1.60;;
71106;SDS011;58763;47.982;11.516;2022-10-17T00:45:52;3.45;;;1.48;;
71106;SDS011;58763;47.982;11.516;2022-10-17T00:48:17;3.03;;;1.27;;
71106;SDS011;58763;47.982;11.516;2022-10-17T00:50:44;4.25;;;1.60;;
71106;SDS011;58763;47.982;11.516;2022-10-17T00:53:12;4.13;;;1.67;;
71106;SDS011;58763;47.982;11.516;2022-10-17T00:55:50;3.90;;;1.50;;
71106;SDS011;58763;47.982;11.516;2022-10-17T00:58:18;2.58;;;1.27;;
71106;SDS011;58763;47.982;11.516;2022-10-17T01:00:45;3.58;;;1.45;;
71106;SDS011;58763;47.982;11.516;2022-10-17T01:03:12;2.42;;;1.13;;
71106;SDS011;58763;47.982;11.516;2022-10-17T01:05:38;3.50;;;1.63;;
71106;SDS011;58763;47.982;11.516;2022-10-17T01:08:05;4.00;;;1.50;;
71106;SDS011;58763;47.982;11.516;2022-10-17T01:10:34;4.10;;;1.50;;
71106;SDS011;58763;47.982;11.516;2022-10-17T01:16:28;4.50;;;2.20;;
71106;SDS011;58763;47.982;11.516;2022-10-17T01:21:59;4.00;;;1.92;;
71106;SDS011;58763;47.982;11.516;2022-10-17T01:24:35;3.92;;;1.75;;
71106;SDS011;58763;47.982;11.516;2022-10-17T01:27:26;3.63;;;1.80;;
71106;SDS011;58763;47.982;11.516;2022-10-17T01:36:14;5.85;;;1.65;;
71106;SDS011;58763;47.982;11.516;2022-10-17T01:39:01;3.90;;;1.83;;
71106;SDS011;58763;47.982;11.516;2022-10-17T01:41:36;4.72;;;2.10;;
71106;SDS011;58763;47.982;11.516;2022-10-17T01:44:34;5.90;;;2.17;;
71106;SDS011;58763;47.982;11.516;2022-10-17T01:47:14;7.15;;;2.25;;
71106;SDS011;58763;47.982;11.516;2022-10-17T01:49:44;4.85;;;1.75;;
71106;SDS011;58763;47.982;11.516;2022-10-17T01:55:18;5.60;;;2.67;;
71106;SDS011;58763;47.982;11.516;2022-10-17T01:57:51;6.18;;;2.25;;
71106;SDS011;58763;47.982;11.516;2022-10-17T02:00:22;4.75;;;2.20;;
71106;SDS011;58763;47.982;11.516;2022-10-17T02:03:00;5.22;;;2.17;;
71106;SDS011;58763;47.982;11.516;2022-10-17T02:05:34;3.90;;;1.90;;
71106;SDS011;58763;47.982;11.516;2022-10-17T02:08:03;3.65;;;2.00;;
71106;SDS011;58763;47.982;11.516;2022-10-17T02:10:32;6.03;;;2.80;;
71106;SDS011;58763;47.982;11.516;2022-10-17T02:19:05;4.68;;;3.15;;
71106;SDS011;58763;47.982;11.516;2022-10-17T02:24:26;5.47;;;4.13;;
71106;SDS011;58763;47.982;11.516;2022-10-17T02:27:06;5.43;;;4.22;;
71106;SDS011;58763;47.982;11.516;2022-10-17T02:29:39;6.68;;;4.30;;
71106;SDS011;58763;47.982;11.516;2022-10-17T02:32:18;6.50;;;3.90;;
71106;SDS011;58763;47.982;11.516;2022-10-17T02:34:49;5.60;;;3.03;;
71106;SDS011;58763;47.982;11.516;2022-10-17T02:37:20;6.50;;;2.80;;
71106;SDS011;58763;47.982;11.516;2022-10-17T02:39:51;5.90;;;2.53;;
71106;SDS011;58763;47.982;11.516;2022-10-17T02:42:19;4.28;;;2.08;;
71106;SDS011;58763;47.982;11.516;2022-10-17T02:44:47;5.50;;;2.20;;
71106;SDS011;58763;47.982;11.516;2022-10-17T02:49:59;3.58;;;1.73;;
71106;SDS011;58763;47.982;11.516;2022-10-17T02:52:35;3.90;;;2.00;;
71106;SDS011;58763;47.982;11.516;2022-10-17T02:57:53;4.43;;;2.10;;
71106;SDS011;58763;47.982;11.516;2022-10-17T03:00:26;4.43;;;1.90;;
71106;SDS011;58763;47.982;11.516;2022-10-17T03:02:53;5.47;;;2.13;;
71106;SDS011;58763;47.982;11.516;2022-10-17T03:05:20;4.90;;;2.30;;
71106;SDS011;58763;47.982;11.516;2022-10-17T03:07:47;4.68;;;2.10;;
71106;SDS011;58763;47.982;11.516;2022-10-17T03:10:13;3.92;;;1.73;;
71106;SDS011;58763;47.982;11.516;2022-10-17T03:12:39;4.63;;;2.10;;
71106;SDS011;58763;47.982;11.516;2022-10-17T03:15:05;5.00;;;2.08;;
71106;SDS011;58763;47.982;11.516;2022-10-17T03:17:31;4.75;;;2.25;;
71106;SDS011;58763;47.982;11.516;2022-10-17T03:19:56;4.18;;;2.10;;
71106;SDS011;58763;47.982;11.516;2022-10-17T03:22:22;5.78;;;2.17;;
71106;SDS011;58763;47.982;11.516;2022-10-17T03:24:48;4.07;;;1.90;;
71106;SDS011;58763;47.982;11.516;2022-10-17T03:27:13;7.68;;;2.40;;
71106;SDS011;58763;47.982;11.516;2022-10-17T03:29:39;4.78;;;1.95;;
71106;SDS011;58763;47.982;11.516;2022-10-17T03:32:04;4.40;;;1.98;;
71106;SDS011;58763;47.982;11.516;2022-10-17T03:34:30;4.75;;;2.13;;
71106;SDS011;58763;47.982;11.516;2022-10-17T03:36:55;4.78;;;2.05;;
71106;SDS011;58763;47.982;11.516;2022-10-17T03:39:21;4.00;;;1.95;;
71106;SDS011;58763;47.982;11.516;2022-10-17T03:41:46;3.47;;;1.67;;
71106;SDS011;58763;47.982;11.516;2022-10-17T03:44:12;3.78;;;1.67;;
71106;SDS011;58763;47.982;11.516;2022-10-17T03:46:38;4.10;;;1.88;;
71106;SDS011;58763;47.982;11.516;2022-10-17T03:49:03;4.57;;;1.80;;
71106;SDS011;58763;47.982;11.516;2022-10-17T03:51:29;6.68;;;2.03;;
71106;SDS011;58763;47.982;11.516;2022-10-17T03:53:54;4.00;;;1.95;;
71106;SDS011;58763;47.982;11.516;2022-10-17T03:56:21;4.60;;;2.10;;
71106;SDS011;58763;47.982;11.516;2022-10-17T03:58:48;4.45;;;1.83;;
71106;SDS011;58763;47.982;11.516;2022-10-17T04:01:14;4.00;;;2.00;;
71106;SDS011;58763;47.982;11.516;2022-10-17T04:03:40;3.60;;;1.60;;
71106;SDS011;58763;47.982;11.516;2022-10-17T04:06:07;5.75;;;2.15;;
71106;SDS011;58763;47.982;11.516;2022-10-17T04:08:34;4.30;;;1.75;;
71106;SDS011;58763;47.982;11.516;2022-10-17T04:11:00;3.92;;;2.03;;
71106;SDS011;58763;47.982;11.516;2022-10-17T04:13:28;5.53;;;2.15;;
71106;SDS011;58763;47.982;11.516;2022-10-17T04:15:57;3.85;;;2.00;;
71106;SDS011;58763;47.982;11.516;2022-10-17T04:18:25;4.93;;;2.42;;
71106;SDS011;58763;47.982;11.516;2022-10-17T04:20:50;4.30;;;1.92;;
71106;SDS011;58763;47.982;11.516;2022-10-17T04:23:16;5.72;;;1.98;;
71106;SDS011;58763;47.982;11.516;2022-10-17T04:25:42;5.45;;;2.17;;
71106;SDS011;58763;47.982;11.516;2022-10-17T04:28:08;4.72;;;2.50;;
71106;SDS011;58763;47.982;11.516;2022-10-17T04:30:34;5.53;;;2.20;;
71106;SDS011;58763;47.982;11.516;2022-10-17T04:33:00;6.00;;;2.40;;
71106;SDS011;58763;47.982;11.516;2022-10-17T04:35:25;6.50;;;2.30;;
71106;SDS011;58763;47.982;11.516;2022-10-17T04:37:51;4.85;;;2.45;;
71106;SDS011;58763;47.982;11.516;2022-10-17T04:40:17;4.55;;;2.28;;
71106;SDS011;58763;47.982;11.516;2022-10-17T04:42:42;4.28;;;1.88;;
71106;SDS011;58763;47.982;11.516;2022-10-17T04:45:08;5.03;;;2.53;;
71106;SDS011;58763;47.982;11.516;2022-10-17T04:47:34;5.05;;;2.42;;
71106;SDS011;58763;47.982;11.516;2022-10-17T04:49:59;5.25;;;2.25;;
71106;SDS011;58763;47.982;11.516;2022-10-17T04:52:25;4.75;;;2.42;;
71106;SDS011;58763;47.982;11.516;2022-10-17T04:54:51;5.57;;;2.40;;
71106;SDS011;58763;47.982;11.516;2022-10-17T04:57:16;4.75;;;2.20;;
71106;SDS011;58763;47.982;11.516;2022-10-17T04:59:44;4.97;;;2.33;;
71106;SDS011;58763;47.982;11.516;2022-10-17T05:02:09;5.75;;;2.40;;
71106;SDS011;58763;47.982;11.516;2022-10-17T05:04:35;5.43;;;2.85;;
71106;SDS011;58763;47.982;11.516;2022-10-17T05:07:01;5.40;;;2.25;;
71106;SDS011;58763;47.982;11.516;2022-10-17T05:09:26;5.97;;;2.50;;
71106;SDS011;58763;47.982;11.516;2022-10-17T05:11:52;5.30;;;2.63;;
71106;SDS011;58763;47.982;11.516;2022-10-17T05:14:18;5.43;;;2.53;;
71106;SDS011;58763;47.982;11.516;2022-10-17T05:16:43;5.13;;;2.38;;
71106;SDS011;58763;47.982;11.516;2022-10-17T05:19:09;6.30;;;2.42;;
71106;SDS011;58763;47.982;11.516;2022-10-17T05:21:35;6.07;;;2.30;;
71106;SDS011;58763;47.982;11.516;2022-10-17T05:24:06;5.25;;;2.38;;
71106;SDS011;58763;47.982;11.516;2022-10-17T05:26:32;5.55;;;2.58;;
71106;SDS011;58763;47.982;11.516;2022-10-17T05:28:58;5.00;;;2.30;;
71106;SDS011;58763;47.982;11.516;2022-10-17T05:31:28;5.10;;;2.47;;
71106;SDS011;58763;47.982;11.516;2022-10-17T05:33:54;5.38;;;2.28;;
71106;SDS011;58763;47.982;11.516;2022-10-17T05:36:20;5.43;;;2.85;;
71106;SDS011;58763;47.982;11.516;2022-10-17T05:38:50;5.05;;;2.72;;
71106;SDS011;58763;47.982;11.516;2022-10-17T05:41:16;7.80;;;2.60;;
71106;SDS011;58763;47.982;11.516;2022-10-17T05:43:43;4.40;;;2.22;;
71106;SDS011;58763;47.982;11.516;2022-10-17T05:46:08;4.60;;;2.38;;
71106;SDS011;58763;47.982;11.516;2022-10-17T05:48:34;7.50;;;2.30;;
71106;SDS011;58763;47.982;11.516;2022-10-17T05:51:01;8.18;;;2.60;;
71106;SDS011;58763;47.982;11.516;2022-10-17T05:53:29;4.22;;;2.13;;
71106;SDS011;58763;47.982;11.516;2022-10-17T05:56:00;6.00;;;2.67;;
71106;SDS011;58763;47.982;11.516;2022-10-17T05:58:27;7.03;;;3.33;;
71106;SDS011;58763;47.982;11.516;2022-10-17T06:01:00;8.60;;;3.75;;
71106;SDS011;58763;47.982;11.516;2022-10-17T06:03:28;9.48;;;4.57;;
71106;SDS011;58763;47.982;11.516;2022-10-17T06:05:54;11.32;;;5.50;;
71106;SDS011;58763;47.982;11.516;2022-10-17T06:08:20;13.10;;;7.68;;
71106;SDS011;58763;47.982;11.516;2022-10-17T06:10:46;8.95;;;5.68;;
71106;SDS011;58763;47.982;11.516;2022-10-17T06:13:16;7.20;;;4.18;;
71106;SDS011;58763;47.982;11.516;2022-10-17T06:15:42;7.25;;;3.60;;
71106;SDS011;58763;47.982;11.516;2022-10-17T06:18:09;6.53;;;3.60;;
71106;SDS011;58763;47.982;11.516;2022-10-17T06:20:35;7.03;;;3.67;;
71106;SDS011;58763;47.982;11.516;2022-10-17T06:23:01;7.50;;;3.70;;
71106;SDS011;58763;47.982;11.516;2022-10-17T06:25:29;6.97;;;3.33;;
71106;SDS011;58763;47.982;11.516;2022-10-17T06:27:56;6.85;;;3.40;;
71106;SDS011;58763;47.982;11.516;2022-10-17T06:30:22;9.63;;;3.72;;
71106;SDS011;58763;47.982;11.516;2022-10-17T06:32:47;4.75;;;2.80;;
71106;SDS011;58763;47.982;11.516;2022-10-17T06:35:13;5.25;;;2.55;;
71106;SDS011;58763;47.982;11.516;2022-10-17T06:37:39;5.63;;;2.30;;
71106;SDS011;58763;47.982;11.516;2022-10-17T06:40:05;6.25;;;2.50;;
71106;SDS011;58763;47.982;11.516;2022-10-17T06:42:33;7.57;;;2.92;;
71106;SDS011;58763;47.982;11.516;2022-10-17T06:44:58;6.00;;;3.20;;
71106;SDS011;58763;47.982;11.516;2022-10-17T06:47:24;6.07;;;3.80;;
71106;SDS011;58763;47.982;11.516;2022-10-17T06:49:50;7.32;;;3.28;;
71106;SDS011;58763;47.982;11.516;2022-10-17T06:52:15;6.40;;;3.05;;
71106;SDS011;58763;47.982;11.516;2022-10-17T06:54:42;6.68;;;2.72;;
71106;SDS011;58763;47.982;11.516;2022-10-17T06:57:08;5.25;;;3.10;;
71106;SDS011;58763;47.982;11.516;2022-10-17T06:59:34;5.35;;;2.63;;
71106;SDS011;58763;47.982;11.516;2022-10-17T07:02:00;4.97;;;3.03;;
71106;SDS011;58763;47.982;11.516;2022-10-17T07:04:26;5.43;;;3.05;;
71106;SDS011;58763;47.982;11.516;2022-10-17T07:06:51;6.30;;;2.55;;
71106;SDS011;58763;47.982;11.516;2022-10-17T07:09:17;5.60;;;3.00;;
71106;SDS011;58763;47.982;11.516;2022-10-17T07:11:43;10.48;;;4.57;;
71106;SDS011;58763;47.982;11.516;2022-10-17T07:14:09;10.32;;;5.45;;
71106;SDS011;58763;47.982;11.516;2022-10-17T07:16:34;6.15;;;4.10;;
71106;SDS011;58763;47.982;11.516;2022-10-17T07:19:00;6.40;;;4.03;;
71106;SDS011;58763;47.982;11.516;2022-10-17T07:21:25;5.65;;;3.45;;
71106;SDS011;58763;47.982;11.516;2022-10-17T07:23:51;5.07;;;2.80;;
71106;SDS011;58763;47.982;11.516;2022-10-17T07:26:17;6.53;;;2.38;;
71106;SDS011;58763;47.982;11.516;2022-10-17T07:28:43;4.97;;;2.65;;
71106;SDS011;58763;47.982;11.516;2022-10-17T07:31:11;5.75;;;2.88;;
71106;SDS011;58763;47.982;11.516;2022-10-17T07:33:39;4.32;;;2.33;;
71106;SDS011;58763;47.982;11.516;2022-10-17T07:36:05;5.05;;;2.55;;
71106;SDS011;58763;47.982;11.516;2022-10-17T07:38:31;5.72;;;2.70;;
71106;SDS011;58763;47.982;11.516;2022-10-17T07:40:58;5.15;;;2.65;;
71106;SDS011;58763;47.982;11.516;2022-10-17T07:43:25;5.57;;;2.42;;
71106;SDS011;58763;47.982;11.516;2022-10-17T07:45:52;6.05;;;2.55;;
71106;SDS011;58763;47.982;11.516;2022-10-17T07:48:18;5.93;;;2.60;;
71106;SDS011;58763;47.982;11.516;2022-10-17T07:50:44;5.95;;;2.70;;
71106;SDS011;58763;47.982;11.516;2022-10-17T07:53:10;4.90;;;2.63;;
71106;SDS011;58763;47.982;11.516;2022-10-17T07:55:37;7.75;;;2.90;;
71106;SDS011;58763;47.982;11.516;2022-10-17T07:58:03;6.22;;;2.88;;
71106;SDS011;58763;47.982;11.516;2022-10-17T08:00:28;5.95;;;2.80;;
71106;SDS011;58763;47.982;11.516;2022-10-17T08:02:54;5.43;;;2.92;;
71106;SDS011;58763;47.982;11.516;2022-10-17T08:05:19;6.03;;;2.70;;
71106;SDS011;58763;47.982;11.516;2022-10-17T08:07:45;6.07;;;2.70;;
71106;SDS011;58763;47.982;11.516;2022-10-17T08:10:11;5.07;;;2.78;;
71106;SDS011;58763;47.982;11.516;2022-10-17T08:12:38;7.60;;;2.50;;
71106;SDS011;58763;47.982;11.516;2022-10-17T08:15:04;4.60;;;2.67;;
71106;SDS011;58763;47.982;11.516;2022-10-17T08:17:33;9.00;;;2.42;;
71106;SDS011;58763;47.982;11.516;2022-10-17T08:19:59;5.72;;;2.45;;
71106;SDS011;58763;47.982;11.516;2022-10-17T08:22:25;6.63;;;2.60;;
71106;SDS011;58763;47.982;11.516;2022-10-17T08:24:50;6.47;;;2.90;;
71106;SDS011;58763;47.982;11.516;2022-10-17T08:27:16;4.68;;;2.40;;
71106;SDS011;58763;47.982;11.516;2022-10-17T08:29:47;5.40;;;2.70;;
71106;SDS011;58763;47.982;11.516;2022-10-17T08:32:17;4.78;;;2.60;;
71106;SDS011;58763;47.982;11.516;2022-10-17T08:34:46;9.23;;;2.83;;
71106;SDS011;58763;47.982;11.516;2022-10-17T08:37:12;4.57;;;2.30;;
71106;SDS011;58763;47.982;11.516;2022-10-17T08:39:39;4.70;;;2.50;;
71106;SDS011;58763;47.982;11.516;2022-10-17T08:42:16;6.88;;;2.70;;
71106;SDS011;58763;47.982;11.516;2022-10-17T08:47:52;8.10;;;2.70;;
71106;SDS011;58763;47.982;11.516;2022-10-17T08:52:55;4.60;;;2.47;;
71106;SDS011;58763;47.982;11.516;2022-10-17T08:55:37;4.80;;;2.53;;
71106;SDS011;58763;47.982;11.516;2022-10-17T08:58:27;5.97;;;2.92;;
71106;SDS011;58763;47.982;11.516;2022-10-17T09:00:59;5.07;;;2.78;;
71106;SDS011;58763;47.982;11.516;2022-10-17T09:03:41;5.40;;;2.67;;
71106;SDS011;58763;47.982;11.516;2022-10-17T09:14:44;4.88;;;2.60;;
71106;SDS011;58763;47.982;11.516;2022-10-17T09:20:30;6.25;;;2.35;;
71106;SDS011;58763;47.982;11.516;2022-10-17T09:23:05;4.57;;;2.60;;
71106;SDS011;58763;47.982;11.516;2022-10-17T09:25:41;4.15;;;2.30;;
71106;SDS011;58763;47.982;11.516;2022-10-17T09:28:24;4.85;;;2.28;;
71106;SDS011;58763;47.982;11.516;2022-10-17T09:31:08;5.38;;;2.10;;
71106;SDS011;58763;47.982;11.516;2022-10-17T09:33:53;4.00;;;2.00;;
71106;SDS011;58763;47.982;11.516;2022-10-17T09:36:26;6.03;;;2.60;;
71106;SDS011;58763;47.982;11.516;2022-10-17T09:39:00;5.82;;;2.20;;
71106;SDS011;58763;47.982;11.516;2022-10-17T09:44:10;5.03;;;2.20;;
71106;SDS011;58763;47.982;11.516;2022-10-17T09:46:38;5.05;;;2.92;;
71106;SDS011;58763;47.982;11.516;2022-10-17T09:49:09;5.90;;;2.50;;
71106;SDS011;58763;47.982;11.516;2022-10-17T09:51:41;5.03;;;2.40;;
71106;SDS011;58763;47.982;11.516;2022-10-17T09:54:12;4.78;;;2.30;;
71106;SDS011;58763;47.982;11.516;2022-10-17T09:57:01;4.18;;;2.22;;
71106;SDS011;58763;47.982;11.516;2022-10-17T09:59:32;7.00;;;2.03;;
71106;SDS011;58763;47.982;11.516;2022-10-17T10:05:20;3.65;;;1.77;;
71106;SDS011;58763;47.982;11.516;2022-10-17T10:07:29;4.20;;;1.80;;
71106;SDS011;58763;47.982;11.516;2022-10-17T10:09:58;5.28;;;2.10;;
71106;SDS011;58763;47.982;11.516;2022-10-17T10:12:28;4.97;;;2.05;;
71106;SDS011;58763;47.982;11.516;2022-10-17T10:14:56;4.72;;;1.90;;
71106;SDS011;58763;47.982;11.516;2022-10-17T10:17:55;5.63;;;1.88;;
71106;SDS011;58763;47.982;11.516;2022-10-17T10:20:23;5.35;;;2.13;;
71106;SDS011;58763;47.982;11.516;2022-10-17T10:27:55;3.70;;;1.92;;
71106;SDS011;58763;47.982;11.516;2022-10-17T10:30:26;4.75;;;2.15;;
71106;SDS011;58763;47.982;11.516;2022-10-17T10:32:54;5.57;;;1.50;;
71106;SDS011;58763;47.982;11.516;2022-10-17T10:35:29;3.88;;;1.80;;
71106;SDS011;58763;47.982;11.516;2022-10-17T10:37:57;4.50;;;2.00;;
71106;SDS011;58763;47.982;11.516;2022-10-17T10:40:32;3.55;;;1.70;;
71106;SDS011;58763;47.982;11.516;2022-10-17T10:43:02;4.43;;;1.73;;
71106;SDS011;58763;47.982;11.516;2022-10-17T10:48:02;6.30;;;1.98;;
71106;SDS011;58763;47.982;11.516;2022-10-17T10:51:01;4.82;;;1.75;;
71106;SDS011;58763;47.982;11.516;2022-10-17T10:56:20;3.35;;;1.58;;
71106;SDS011;58763;47.982;11.516;2022-10-17T10:59:03;3.88;;;1.70;;
71106;SDS011;58763;47.982;11.516;2022-10-17T11:01:48;3.15;;;1.63;;
71106;SDS011;58763;47.982;11.516;2022-10-17T11:10:21;4.32;;;1.40;;
71106;SDS011;58763;47.982;11.516;2022-10-17T11:18:41;2.67;;;1.30;;
71106;SDS011;58763;47.982;11.516;2022-10-17T11:24:20;5.20;;;1.20;;
71106;SDS011;58763;47.982;11.516;2022-10-17T11:29:26;3.78;;;1.50;;
71106;SDS011;58763;47.982;11.516;2022-10-17T11:31:54;3.42;;;1.55;;
71106;SDS011;58763;47.982;11.516;2022-10-17T11:34:26;2.90;;;1.08;;
71106;SDS011;58763;47.982;11.516;2022-10-17T11:37:01;3.47;;;1.25;;
71106;SDS011;58763;47.982;11.516;2022-10-17T11:39:47;4.38;;;1.23;;
71106;SDS011;58763;47.982;11.516;2022-10-17T11:42:31;7.03;;;1.52;;
71106;SDS011;58763;47.982;11.516;2022-10-17T11:45:08;4.18;;;1.50;;
71106;SDS011;58763;47.982;11.516;2022-10-17T11:55:51;3.25;;;1.30;;
71106;SDS011;58763;47.982;11.516;2022-10-17T12:09:42;2.75;;;1.27;;
71106;SDS011;58763;47.982;11.516;2022-10-17T12:12:10;3.33;;;1.45;;
71106;SDS011;58763;47.982;11.516;2022-10-17T12:14:52;2.55;;;1.10;;
71106;SDS011;58763;47.982;11.516;2022-10-17T12:22:46;2.67;;;1.30;;
71106;SDS011;58763;47.982;11.516;2022-10-17T12:25:17;2.40;;;1.13;;
71106;SDS011;58763;47.982;11.516;2022-10-17T12:30:47;3.58;;;1.50;;
71106;SDS011;58763;47.982;11.516;2022-10-17T12:46:40;3.22;;;1.38;;
71106;SDS011;58763;47.982;11.516;2022-10-17T12:52:16;2.25;;;0.90;;
71106;SDS011;58763;47.982;11.516;2022-10-17T12:55:12;2.63;;;1.23;;
71106;SDS011;58763;47.982;11.516;2022-10-17T13:00:29;3.75;;;1.63;;
71106;SDS011;58763;47.982;11.516;2022-10-17T13:03:04;2.90;;;1.20;;
71106;SDS011;58763;47.982;11.516;2022-10-17T13:05:37;3.00;;;1.38;;
71106;SDS011;58763;47.982;11.516;2022-10-17T13:08:06;3.15;;;1.27;;
71106;SDS011;58763;47.982;11.516;2022-10-17T13:10:38;6.35;;;1.40;;
71106;SDS011;58763;47.982;11.516;2022-10-17T13:15:45;2.47;;;1.10;;
71106;SDS011;58763;47.982;11.516;2022-10-17T13:18:22;4.38;;;1.30;;
71106;SDS011;58763;47.982;11.516;2022-10-17T13:23:40;2.90;;;1.30;;
71106;SDS011;58763;47.982;11.516;2022-10-17T13:28:35;2.80;;;1.17;;
71106;SDS011;58763;47.982;11.516;2022-10-17T13:31:00;2.67;;;1.20;;
71106;SDS011;58763;47.982;11.516;2022-10-17T13:36:01;2.22;;;1.00;;
71106;SDS011;58763;47.982;11.516;2022-10-17T13:38:29;2.80;;;1.30;;
71106;SDS011;58763;47.982;11.516;2022-10-17T13:40:56;2.75;;;1.42;;
71106;SDS011;58763;47.982;11.516;2022-10-17T13:43:22;3.90;;;1.40;;
71106;SDS011;58763;47.982;11.516;2022-10-17T13:45:49;3.30;;;1.55;;
71106;SDS011;58763;47.982;11.516;2022-10-17T13:48:24;3.40;;;1.20;;
71106;SDS011;58763;47.982;11.516;2022-10-17T13:50:52;3.03;;;1.30;;
71106;SDS011;58763;47.982;11.516;2022-10-17T13:53:37;3.63;;;1.57;;
71106;SDS011;58763;47.982;11.516;2022-10-17T13:58:41;3.35;;;1.17;;
71106;SDS011;58763;47.982;11.516;2022-10-17T14:01:14;2.60;;;1.20;;
71106;SDS011;58763;47.982;11.516;2022-10-17T14:03:46;4.05;;;1.27;;
71106;SDS011;58763;47.982;11.516;2022-10-17T14:06:16;5.15;;;1.30;;
71106;SDS011;58763;47.982;11.516;2022-10-17T14:11:23;6.10;;;1.40;;
71106;SDS011;58763;47.982;11.516;2022-10-17T14:13:56;5.10;;;1.40;;
71106;SDS011;58763;47.982;11.516;2022-10-17T14:16:23;3.88;;;1.40;;
71106;SDS011;58763;47.982;11.516;2022-10-17T14:18:50;3.45;;;1.27;;
71106;SDS011;58763;47.982;11.516;2022-10-17T14:21:18;4.30;;;1.40;;
71106;SDS011;58763;47.982;11.516;2022-10-17T14:23:49;4.07;;;1.30;;
71106;SDS011;58763;47.982;11.516;2022-10-17T14:26:18;3.88;;;1.15;;
71106;SDS011;58763;47.982;11.516;2022-10-17T14:28:48;7.68;;;1.40;;
71106;SDS011;58763;47.982;11.516;2022-10-17T14:31:30;4.82;;;1.40;;
71106;SDS011;58763;47.982;11.516;2022-10-17T14:33:58;2.67;;;1.13;;
71106;SDS011;58763;47.982;11.516;2022-10-17T14:36:32;4.03;;;1.20;;
71106;SDS011;58763;47.982;11.516;2022-10-17T14:39:02;3.67;;;1.30;;
71106;SDS011;58763;47.982;11.516;2022-10-17T14:41:31;2.83;;;1.40;;
71106;SDS011;58763;47.982;11.516;2022-10-17T14:44:06;4.05;;;1.27;;
71106;SDS011;58763;47.982;11.516;2022-10-17T14:46:42;7.45;;;1.10;;
71106;SDS011;58763;47.982;11.516;2022-10-17T14:49:15;2.75;;;1.35;;
71106;SDS011;58763;47.982;11.516;2022-10-17T14:54:34;4.28;;;1.40;;
71106;SDS011;58763;47.982;11.516;2022-10-17T14:57:07;3.35;;;1.20;;
71106;SDS011;58763;47.982;11.516;2022-10-17T14:59:38;2.80;;;0.98;;
71106;SDS011;58763;47.982;11.516;2022-10-17T15:02:04;4.88;;;1.48;;
71106;SDS011;58763;47.982;11.516;2022-10-17T15:04:29;3.33;;;1.65;;
71106;SDS011;58763;47.982;11.516;2022-10-17T15:06:55;2.88;;;1.20;;
71106;SDS011;58763;47.982;11.516;2022-10-17T15:09:20;3.65;;;1.30;;
71106;SDS011;58763;47.982;11.516;2022-10-17T15:11:48;3.42;;;1.35;;
71106;SDS011;58763;47.982;11.516;2022-10-17T15:14:13;5.22;;;1.40;;
71106;SDS011;58763;47.982;11.516;2022-10-17T15:16:38;3.00;;;1.30;;
71106;SDS011;58763;47.982;11.516;2022-10-17T15:19:04;3.90;;;1.15;;
71106;SDS011;58763;47.982;11.516;2022-10-17T15:21:30;3.22;;;1.13;;
71106;SDS011;58763;47.982;11.516;2022-10-17T15:23:55;3.28;;;1.58;;
71106;SDS011;58763;47.982;11.516;2022-10-17T15:26:25;2.53;;;1.35;;
71106;SDS011;58763;47.982;11.516;2022-10-17T15:28:54;2.35;;;1.10;;
71106;SDS011;58763;47.982;11.516;2022-10-17T15:31:20;2.50;;;1.27;;
71106;SDS011;58763;47.982;11.516;2022-10-17T15:33:48;3.05;;;1.15;;
71106;SDS011;58763;47.982;11.516;2022-10-17T15:36:16;2.60;;;1.17;;
71106;SDS011;58763;47.982;11.516;2022-10-17T15:38:54;3.25;;;1.40;;
71106;SDS011;58763;47.982;11.516;2022-10-17T15:41:21;3.40;;;1.42;;
71106;SDS011;58763;47.982;11.516;2022-10-17T15:43:48;3.30;;;1.30;;
71106;SDS011;58763;47.982;11.516;2022-10-17T15:46:16;2.63;;;1.23;;
71106;SDS011;58763;47.982;11.516;2022-10-17T15:48:44;4.20;;;1.60;;
71106;SDS011;58763;47.982;11.516;2022-10-17T15:51:09;3.15;;;1.25;;
71106;SDS011;58763;47.982;11.516;2022-10-17T15:53:35;3.75;;;1.40;;
71106;SDS011;58763;47.982;11.516;2022-10-17T15:56:01;4.32;;;1.67;;
71106;SDS011;58763;47.982;11.516;2022-10-17T15:58:37;2.67;;;1.20;;
71106;SDS011;58763;47.982;11.516;2022-10-17T16:01:04;4.85;;;1.35;;
71106;SDS011;58763;47.982;11.516;2022-10-17T16:03:30;4.03;;;1.30;;
71106;SDS011;58763;47.982;11.516;2022-10-17T16:05:57;4.63;;;1.55;;
71106;SDS011;58763;47.982;11.516;2022-10-17T16:08:23;3.78;;;1.85;;
71106;SDS011;58763;47.982;11.516;2022-10-17T16:10:48;3.15;;;1.35;;
71106;SDS011;58763;47.982;11.516;2022-10-17T16:13:16;5.75;;;1.83;;
71106;SDS011;58763;47.982;11.516;2022-10-17T16:15:43;7.90;;;2.65;;
71106;SDS011;58763;47.982;11.516;2022-10-17T16:18:09;7.32;;;2.10;;
71106;SDS011;58763;47.982;11.516;2022-10-17T16:20:34;5.22;;;2.30;;
71106;SDS011;58763;47.982;11.516;2022-10-17T16:23:00;5.30;;;2.13;;
71106;SDS011;58763;47.982;11.516;2022-10-17T16:25:28;5.57;;;2.83;;
71106;SDS011;58763;47.982;11.516;2022-10-17T16:27:55;4.65;;;2.58;;
71106;SDS011;58763;47.982;11.516;2022-10-17T16:30:23;5.47;;;2.58;;
71106;SDS011;58763;47.982;11.516;2022-10-17T16:32:51;5.40;;;2.50;;
71106;SDS011;58763;47.982;11.516;2022-10-17T16:35:18;7.25;;;4.03;;
71106;SDS011;58763;47.982;11.516;2022-10-17T16:37:46;8.13;;;4.10;;
71106;SDS011;58763;47.982;11.516;2022-10-17T16:40:12;6.07;;;3.20;;
71106;SDS011;58763;47.982;11.516;2022-10-17T16:42:37;6.57;;;3.60;;
71106;SDS011;58763;47.982;11.516;2022-10-17T16:45:03;19.48;;;8.77;;
71106;SDS011;58763;47.982;11.516;2022-10-17T16:47:29;12.30;;;7.00;;
71106;SDS011;58763;47.982;11.516;2022-10-17T16:49:55;10.32;;;5.47;;
71106;SDS011;58763;47.982;11.516;2022-10-17T16:52:20;11.70;;;4.72;;
71106;SDS011;58763;47.982;11.516;2022-10-17T16:54:46;11.93;;;7.00;;
71106;SDS011;58763;47.982;11.516;2022-10-17T16:57:11;14.27;;;5.82;;
71106;SDS011;58763;47.982;11.516;2022-10-17T16:59:37;10.52;;;6.03;;
71106;SDS011;58763;47.982;11.516;2022-10-17T17:02:02;10.15;;;6.03;;
71106;SDS011;58763;47.982;11.516;2022-10-17T17:04:28;11.52;;;6.82;;
71106;SDS011;58763;47.982;11.516;2022-10-17T17:06:54;8.25;;;3.65;;
71106;SDS011;58763;47.982;11.516;2022-10-17T17:09:19;5.78;;;2.78;;
71106;SDS011;58763;47.982;11.516;2022-10-17T17:11:45;4.50;;;2.00;;